Terminal Aerodrome Forecast
Issued by NWS

Home | Current Version | Previous Version | Text Only | Print | Product List | Glossary On
Versions: 1 2 3 4 5 6 7 8 9 10 11 12 13 14 15
000
FTUS45 KRIW 201100
TAFBPI
TAF
KBPI 201121Z 2012/2112 30006KT P6SM SCT080 BKN120
     FM201500 28007KT P6SM FEW090 SCT150
     FM202200 29011KT P6SM VCTS SCT060CB BKN100
     FM210200 36008KT P6SM VCSH SCT090 BKN130
     FM210700 VRB05KT P6SM SCT110 BKN200=

USA.gov is the U.S. government's official web portal to all federal, state and local government web resources and services.